This is the latest recevied weather packets stored in our database for station/object KJ6LNH-1. If no packets are shown the sender has not sent any weather packets the latest 10 day(s).
| Time | Temp. | Humidity | Pressure | Rain* | Wind** | Luminosity | Snow |
|---|---|---|---|---|---|---|---|
| 1787847006 | 25° C | 47% | 1012.2 hPa | 0 mm | - | - | - |
| 1787846705 | 25° C | 47% | 1012.3 hPa | 0 mm | - | - | - |
| 1787846406 | 24.44° C | 49% | 1012.3 hPa | 0 mm | - | - | - |
| 1787846106 | 23.89° C | 50% | 1012.3 hPa | 0 mm | - | - | - |
| 1787845505 | 23.33° C | 51% | 1012.5 hPa | 0 mm | - | - | - |
| 1787845207 | 23.33° C | 52% | 1012.5 hPa | 0 mm | - | - | - |
| 1787844305 | 22.78° C | 53% | 1012.3 hPa | 0 mm | - | - | - |
| 1787844006 | 22.78° C | 53% | 1012.2 hPa | 0 mm | - | - | - |
| 1787843706 | 22.78° C | 52% | 1012.1 hPa | 0 mm | - | - | - |
| 1787843410 | 22.78° C | 51% | 1012.1 hPa | 0 mm | - | - | - |
| 1787843105 | 22.78° C | 51% | 1012.1 hPa | 0 mm | - | - | - |
| 1787842806 | 22.22° C | 52% | 1012.2 hPa | 0 mm | - | - | - |
| 1787842207 | 21.67° C | 55% | 1012.3 hPa | 0 mm | - | - | - |
| 1787841905 | 20.56° C | 59% | 1012.4 hPa | 0 mm | - | - | - |
| 1787841606 | 20.56° C | 60% | 1012.4 hPa | 0 mm | - | - | - |
| 1787841306 | 20.56° C | 59% | 1012.4 hPa | 0 mm | - | - | - |
| 1787841007 | 21.11° C | 57% | 1012.2 hPa | 0 mm | - | - | - |
| 1787840705 | 21.11° C | 57% | 1012.1 hPa | 0 mm | - | - | - |
| 1787840405 | 20.56° C | 58% | 1012 hPa | 0 mm | - | - | - |
| 1787840106 | 21.11° C | 56% | 1011.9 hPa | 0 mm | - | - | - |
| 1787839806 | 21.11° C | 56% | 1011.8 hPa | 0 mm | - | - | - |
| 1787839507 | 21.11° C | 57% | 1011.7 hPa | 0 mm | - | - | - |
| 1787839206 | 20.56° C | 57% | 1011.6 hPa | 0 mm | - | - | - |
| 1787838906 | 20.56° C | 58% | 1011.6 hPa | 0 mm | - | - | - |
| 1787838606 | 20.56° C | 57% | 1011.5 hPa | 0 mm | - | - | - |
* Rain latest hour (hover to see other rain measurements)
** Current wind speed in m/s (hover to see current wind gust speed)